Time;durP1;ratioP1;P1;durP2;ratioP2;P2;SDS_P1;SDS_P2;PMS_P1;PMS_P2;Temp;Humidity;BMP_temperature;BMP_pressure;BME280_temperature;BME280_humidity;BME280_pressure;Samples;Min_cycle;Max_cycle;Signal;HPM_P1;HPM_P2
2021/12/03 00:00:46;;;;;;;11.52;6.32;;;6.10;99.90;;;;;;4971557;29;20042;-82
2021/12/03 00:03:12;;;;;;;23.23;7.60;;;6.10;99.90;;;;;;4975537;28;20034;-82
2021/12/03 00:05:38;;;;;;;12.80;5.88;;;6.10;99.90;;;;;;4977343;29;20055;-82
2021/12/03 00:08:05;;;;;;;11.20;6.03;;;6.10;99.90;;;;;;4974709;28;20031;-84
2021/12/03 00:10:34;;;;;;;9.43;5.53;;;6.00;99.90;;;;;;4972649;29;20027;-83
2021/12/03 00:13:00;;;;;;;9.85;5.85;;;6.00;99.90;;;;;;4958895;28;20035;-82
2021/12/03 00:15:27;;;;;;;9.73;5.78;;;6.00;99.90;;;;;;4977703;28;20020;-83
2021/12/03 00:17:54;;;;;;;9.98;5.00;;;6.00;99.90;;;;;;4944570;29;20036;-85
2021/12/03 00:20:21;;;;;;;13.50;5.38;;;6.00;99.90;;;;;;4960019;29;20031;-84
2021/12/03 00:22:50;;;;;;;10.38;5.45;;;5.90;99.90;;;;;;4976501;29;20046;-81
2021/12/03 00:25:16;;;;;;;10.15;4.75;;;5.90;99.90;;;;;;4961648;29;20026;-82
2021/12/03 00:27:43;;;;;;;10.35;4.55;;;5.90;99.90;;;;;;4978287;28;20016;-82
2021/12/03 00:30:11;;;;;;;7.15;4.25;;;5.90;99.90;;;;;;4945514;29;20027;-83
2021/12/03 00:32:38;;;;;;;8.85;4.60;;;5.80;99.90;;;;;;4978155;28;20054;-82
2021/12/03 00:35:06;;;;;;;9.32;4.47;;;5.80;99.90;;;;;;4961550;28;20112;-82
2021/12/03 00:37:32;;;;;;;11.02;4.28;;;5.80;99.90;;;;;;4961120;28;20030;-81
2021/12/03 00:39:58;;;;;;;7.32;3.30;;;5.80;99.90;;;;;;4961408;29;20019;-81
2021/12/03 00:42:26;;;;;;;9.27;3.78;;;5.70;99.90;;;;;;4960591;29;20035;-83
2021/12/03 00:44:55;;;;;;;9.57;3.47;;;5.70;99.90;;;;;;4978499;28;20641;-84
2021/12/03 00:47:22;;;;;;;10.20;4.10;;;5.60;99.90;;;;;;4978346;28;20035;-84
2021/12/03 00:49:48;;;;;;;10.73;2.88;;;5.60;99.90;;;;;;4977500;28;20087;-85
2021/12/03 00:52:15;;;;;;;7.78;2.92;;;5.50;99.90;;;;;;4977257;29;20035;-83
2021/12/03 00:54:40;;;;;;;7.97;3.20;;;5.50;99.90;;;;;;4979450;29;20031;-84
2021/12/03 00:57:06;;;;;;;9.98;3.47;;;5.50;99.90;;;;;;4978986;29;20031;-84
2021/12/03 00:59:33;;;;;;;13.27;3.20;;;5.50;99.90;;;;;;4978254;28;20043;-86
2021/12/03 01:01:59;;;;;;;9.70;3.78;;;5.40;99.90;;;;;;4976950;29;20031;-83
2021/12/03 01:04:25;;;;;;;8.73;3.67;;;5.40;99.90;;;;;;4976672;29;20046;-84
2021/12/03 01:06:51;;;;;;;7.30;3.47;;;5.50;99.90;;;;;;4977612;29;20228;-82
2021/12/03 01:09:17;;;;;;;10.38;3.72;;;5.50;99.90;;;;;;4981126;28;20031;-82
2021/12/03 01:11:43;;;;;;;10.00;3.97;;;5.40;99.90;;;;;;4964725;28;20035;-83
2021/12/03 01:14:09;;;;;;;8.23;3.88;;;5.40;99.90;;;;;;4963280;29;20082;-82
2021/12/03 01:16:35;;;;;;;9.15;3.90;;;5.40;99.90;;;;;;4981088;28;20015;-83
2021/12/03 01:19:02;;;;;;;10.60;4.60;;;5.40;99.90;;;;;;4980588;28;20042;-83
2021/12/03 01:21:29;;;;;;;14.55;5.00;;;5.40;99.90;;;;;;4962557;29;20574;-83
2021/12/03 01:23:56;;;;;;;15.23;5.20;;;5.40;99.90;;;;;;4981010;28;20012;-83
2021/12/03 01:26:23;;;;;;;9.35;5.03;;;5.30;99.90;;;;;;4980097;28;20032;-82
2021/12/03 01:28:49;;;;;;;11.77;5.18;;;5.30;99.90;;;;;;4980015;28;20031;-82
2021/12/03 01:31:16;;;;;;;13.95;5.63;;;5.30;99.90;;;;;;4963614;29;20077;-82
2021/12/03 01:33:44;;;;;;;14.27;4.70;;;5.30;99.90;;;;;;4974226;29;20027;-84
2021/12/03 01:36:10;;;;;;;11.02;4.32;;;5.20;99.90;;;;;;4973274;29;20058;-84
2021/12/03 01:38:36;;;;;;;11.55;4.47;;;5.30;99.90;;;;;;4975052;28;20035;-82
2021/12/03 01:41:02;;;;;;;13.20;4.93;;;5.30;99.90;;;;;;4953460;29;20052;-84
2021/12/03 01:43:28;;;;;;;14.43;4.85;;;5.30;99.90;;;;;;4972982;29;20023;-83
2021/12/03 01:46:01;;;;;;;13.02;5.78;;;5.30;99.90;;;;;;4956406;29;20046;-82
2021/12/03 01:48:28;;;;;;;12.10;4.88;;;5.30;99.90;;;;;;4973432;28;20046;-84
2021/12/03 01:50:54;;;;;;;12.25;4.93;;;5.30;99.90;;;;;;4956597;29;20032;-82
2021/12/03 01:53:24;;;;;;;13.32;5.68;;;5.30;99.90;;;;;;4955638;29;20054;-81
2021/12/03 01:55:52;;;;;;;13.70;4.90;;;5.30;99.90;;;;;;4954958;29;20340;-84
2021/12/03 01:58:18;;;;;;;16.98;5.20;;;5.20;99.90;;;;;;4971522;28;20019;-82
2021/12/03 02:00:53;;;;;;;11.15;4.88;;;5.20;99.90;;;;;;4972270;29;20045;-83
2021/12/03 02:03:23;;;;;;;11.77;5.03;;;5.20;99.90;;;;;;4972024;29;20031;-83
2021/12/03 02:05:50;;;;;;;16.65;5.63;;;5.10;99.90;;;;;;4968865;29;20475;-83
2021/12/03 02:08:16;;;;;;;17.52;5.57;;;5.10;99.90;;;;;;4936613;28;20031;-84
2021/12/03 02:10:43;;;;;;;13.45;4.90;;;5.10;99.90;;;;;;4948935;29;20062;-84
2021/12/03 02:13:11;;;;;;;13.45;4.57;;;5.10;99.90;;;;;;4969669;29;20023;-83
2021/12/03 02:15:37;;;;;;;12.52;4.55;;;5.00;99.90;;;;;;4953496;29;20038;-83
2021/12/03 02:18:05;;;;;;;10.48;4.53;;;5.10;99.90;;;;;;4969340;28;20028;-84
2021/12/03 02:20:31;;;;;;;11.18;4.40;;;5.00;99.90;;;;;;4971918;29;20035;-83
2021/12/03 02:22:57;;;;;;;13.18;5.07;;;5.00;99.90;;;;;;4965995;29;20112;-83
2021/12/03 02:25:25;;;;;;;10.98;4.18;;;5.00;99.90;;;;;;4945807;29;20035;-83
2021/12/03 02:27:54;;;;;;;11.48;4.53;;;5.00;99.90;;;;;;4963697;29;20024;-82
2021/12/03 02:30:21;;;;;;;9.57;4.45;;;5.00;99.90;;;;;;4947765;29;20118;-84
2021/12/03 02:32:49;;;;;;;11.23;4.28;;;5.00;99.90;;;;;;4931639;29;20090;-83
2021/12/03 02:35:17;;;;;;;14.43;5.50;;;5.00;99.90;;;;;;4947414;29;20062;-84
2021/12/03 02:37:43;;;;;;;9.38;4.97;;;5.00;99.90;;;;;;4948305;29;20074;-83
2021/12/03 02:40:09;;;;;;;8.90;4.20;;;5.00;99.90;;;;;;4950404;29;20038;-84
2021/12/03 02:42:35;;;;;;;9.95;4.43;;;5.10;99.90;;;;;;4965501;29;20035;-83
2021/12/03 02:45:03;;;;;;;9.95;4.03;;;5.00;99.90;;;;;;4953121;29;20042;-83
2021/12/03 02:47:29;;;;;;;7.88;3.80;;;5.00;99.90;;;;;;4956557;29;20035;-82
2021/12/03 02:49:55;;;;;;;13.15;4.07;;;5.00;99.90;;;;;;4953910;29;20090;-83
2021/12/03 02:52:21;;;;;;;7.80;3.92;;;5.00;99.90;;;;;;4975249;29;20043;-80
2021/12/03 02:54:47;;;;;;;13.68;3.88;;;5.00;99.90;;;;;;4975220;29;20035;-83
2021/12/03 02:57:13;;;;;;;8.60;3.65;;;4.90;99.90;;;;;;4976232;29;20027;-82
2021/12/03 02:59:39;;;;;;;8.07;3.65;;;4.90;99.90;;;;;;4977042;28;20055;-83
2021/12/03 03:02:04;;;;;;;8.68;3.25;;;5.00;99.90;;;;;;4974849;29;20039;-83
2021/12/03 03:04:30;;;;;;;11.38;3.60;;;4.90;99.90;;;;;;4972681;29;20066;-84
2021/12/03 03:06:56;;;;;;;12.25;4.07;;;4.90;99.90;;;;;;4951148;29;20027;-82
2021/12/03 03:09:22;;;;;;;12.70;3.45;;;4.90;99.90;;;;;;4939228;28;20039;-83
2021/12/03 03:11:48;;;;;;;8.50;3.42;;;4.90;99.90;;;;;;4978832;28;20039;-81
2021/12/03 03:14:15;;;;;;;12.20;3.38;;;4.90;99.90;;;;;;4978870;28;20027;-84
2021/12/03 03:16:41;;;;;;;8.45;4.05;;;4.90;99.90;;;;;;4946561;29;20075;-82
2021/12/03 03:19:18;;;;;;;8.52;3.85;;;4.90;99.90;;;;;;4978863;28;20221;-83
2021/12/03 03:21:45;;;;;;;6.50;3.28;;;4.90;99.90;;;;;;4979501;28;20035;-81
2021/12/03 03:24:13;;;;;;;10.27;3.35;;;4.90;99.90;;;;;;4974506;28;20035;-81
2021/12/03 03:26:40;;;;;;;7.15;3.20;;;4.90;99.90;;;;;;4936638;29;20487;-80
2021/12/03 03:29:08;;;;;;;11.60;3.42;;;4.90;99.90;;;;;;4937515;29;20027;-83
2021/12/03 03:31:37;;;;;;;6.65;2.95;;;4.90;99.90;;;;;;4971522;29;20546;-82
2021/12/03 03:34:03;;;;;;;6.70;2.50;;;4.90;99.90;;;;;;4971881;29;20030;-83
2021/12/03 03:36:34;;;;;;;7.45;2.80;;;4.90;99.90;;;;;;4952421;29;20051;-81
2021/12/03 03:39:01;;;;;;;8.52;2.80;;;4.90;99.90;;;;;;4968218;28;20023;-84
2021/12/03 03:41:27;;;;;;;8.18;2.72;;;4.90;99.90;;;;;;4937164;29;20039;-83
2021/12/03 03:43:53;;;;;;;7.70;3.17;;;4.90;99.90;;;;;;4972239;29;20087;-83
2021/12/03 03:46:18;;;;;;;5.20;3.10;;;4.80;99.90;;;;;;4972578;29;20054;-83
2021/12/03 03:48:44;;;;;;;9.75;3.38;;;4.80;99.90;;;;;;4953989;29;20031;-82
2021/12/03 03:51:10;;;;;;;8.90;2.47;;;4.80;99.90;;;;;;4969531;29;20027;-83
2021/12/03 03:53:38;;;;;;;10.50;3.40;;;4.70;99.90;;;;;;4968807;29;20024;-83
2021/12/03 03:56:05;;;;;;;8.05;2.60;;;4.70;99.90;;;;;;4964608;29;20090;-83
2021/12/03 03:58:32;;;;;;;5.57;2.10;;;4.60;99.90;;;;;;4949382;29;20039;-83
2021/12/03 04:00:58;;;;;;;5.50;2.55;;;4.70;99.90;;;;;;4962956;29;20169;-85
2021/12/03 04:03:24;;;;;;;10.43;3.00;;;4.60;99.90;;;;;;4965082;29;20155;-82
2021/12/03 04:05:50;;;;;;;7.65;2.60;;;4.60;99.90;;;;;;4963948;29;20062;-84
2021/12/03 04:08:16;;;;;;;12.57;2.80;;;4.60;99.90;;;;;;4963264;28;20035;-83
2021/12/03 04:10:42;;;;;;;4.80;2.33;;;4.60;99.90;;;;;;4946279;29;20059;-85
2021/12/03 04:13:08;;;;;;;8.88;2.38;;;4.60;99.90;;;;;;4967920;29;20563;-84
2021/12/03 04:15:33;;;;;;;6.45;2.42;;;4.50;99.90;;;;;;4975832;29;20035;-83
2021/12/03 04:17:59;;;;;;;4.90;2.15;;;4.50;99.90;;;;;;4972732;28;20051;-84
2021/12/03 04:20:25;;;;;;;6.78;2.78;;;4.50;99.90;;;;;;4958576;29;20035;-84
2021/12/03 04:22:52;;;;;;;5.60;2.38;;;4.40;99.90;;;;;;4981252;28;20028;-83
2021/12/03 04:25:21;;;;;;;6.70;2.78;;;4.40;99.90;;;;;;4975264;29;20039;-83
2021/12/03 04:27:48;;;;;;;7.53;2.85;;;4.40;99.90;;;;;;4938563;29;20027;-85
2021/12/03 04:30:19;;;;;;;8.00;2.38;;;4.30;99.90;;;;;;4953752;29;20091;-84
2021/12/03 04:32:45;;;;;;;6.88;2.50;;;4.20;99.90;;;;;;4967365;29;20039;-85
2021/12/03 04:35:11;;;;;;;6.53;2.92;;;4.20;99.90;;;;;;4968763;29;20070;-84
2021/12/03 04:37:37;;;;;;;5.90;2.88;;;4.10;99.90;;;;;;4933853;29;20678;-85
2021/12/03 04:40:06;;;;;;;4.22;2.33;;;4.10;99.90;;;;;;4964848;28;20098;-84
2021/12/03 04:42:32;;;;;;;4.13;2.33;;;4.00;99.90;;;;;;4963601;29;20031;-83
2021/12/03 04:44:57;;;;;;;7.35;2.53;;;3.90;99.90;;;;;;4963761;29;20023;-82
2021/12/03 04:47:23;;;;;;;3.67;2.35;;;3.90;99.90;;;;;;4946737;29;20035;-82
2021/12/03 04:49:49;;;;;;;5.45;2.67;;;3.80;99.90;;;;;;4948372;29;20074;-84
2021/12/03 04:52:15;;;;;;;10.35;3.05;;;3.80;99.90;;;;;;4966168;29;20533;-83
2021/12/03 04:54:42;;;;;;;7.20;2.83;;;3.70;99.90;;;;;;4949584;29;20023;-85
2021/12/03 04:57:08;;;;;;;5.70;2.25;;;3.70;99.90;;;;;;4968561;29;20031;-83
2021/12/03 04:59:34;;;;;;;8.95;3.25;;;3.60;99.90;;;;;;4967280;28;20108;-84
2021/12/03 05:02:00;;;;;;;8.90;2.72;;;3.60;99.90;;;;;;4952358;29;20039;-83
2021/12/03 05:04:27;;;;;;;4.60;2.72;;;3.60;99.90;;;;;;4953878;29;20027;-84
2021/12/03 05:07:16;;;;;;;4.13;2.35;;;3.60;99.90;;;;;;4978928;28;20031;-81
2021/12/03 05:09:42;;;;;;;4.95;2.80;;;3.60;99.90;;;;;;4964553;29;20038;-81
2021/12/03 05:12:08;;;;;;;9.27;2.90;;;3.50;99.90;;;;;;4974158;28;20032;-85
2021/12/03 05:14:34;;;;;;;8.07;2.78;;;3.50;99.90;;;;;;4974954;29;20086;-83
2021/12/03 05:17:00;;;;;;;4.85;2.47;;;3.50;99.90;;;;;;4981133;28;20030;-82
2021/12/03 05:19:25;;;;;;;9.73;2.90;;;3.50;99.90;;;;;;4974114;28;20043;-82
2021/12/03 05:21:51;;;;;;;5.55;2.72;;;3.50;99.90;;;;;;4969236;29;20038;-83
2021/12/03 05:24:17;;;;;;;5.63;2.65;;;3.50;99.90;;;;;;4966962;29;20039;-83
2021/12/03 05:26:43;;;;;;;8.75;2.67;;;3.50;99.90;;;;;;4979037;28;20028;-82
2021/12/03 05:29:10;;;;;;;5.35;2.60;;;3.50;99.90;;;;;;4963507;29;20038;-83
2021/12/03 05:31:37;;;;;;;6.88;2.83;;;3.50;99.90;;;;;;4978792;28;20042;-81
2021/12/03 05:34:05;;;;;;;5.78;2.97;;;3.50;99.90;;;;;;4963368;29;20043;-82
2021/12/03 05:36:31;;;;;;;10.75;3.40;;;3.50;99.90;;;;;;4978936;28;20023;-83
2021/12/03 05:38:57;;;;;;;8.18;3.38;;;3.50;99.90;;;;;;4979795;28;20027;-82
2021/12/03 05:41:23;;;;;;;7.85;3.22;;;3.50;99.90;;;;;;4962986;29;20042;-82
2021/12/03 05:43:49;;;;;;;7.57;3.92;;;3.50;99.90;;;;;;4980331;28;20023;-83
2021/12/03 05:46:15;;;;;;;6.30;3.70;;;3.50;99.90;;;;;;4979868;28;20019;-81
2021/12/03 05:48:42;;;;;;;8.65;4.00;;;3.50;99.90;;;;;;4986648;23;20062;-84
2021/12/03 05:51:09;;;;;;;5.68;3.08;;;3.50;99.90;;;;;;4979662;28;20015;-84
2021/12/03 05:53:35;;;;;;;8.60;3.40;;;3.50;99.90;;;;;;4999441;28;20046;-83
2021/12/03 05:56:01;;;;;;;8.48;3.33;;;3.60;99.90;;;;;;4983539;28;20015;-84
2021/12/03 05:58:29;;;;;;;7.82;3.65;;;3.60;99.90;;;;;;4999232;28;20078;-85
2021/12/03 06:00:55;;;;;;;8.05;3.22;;;3.60;99.90;;;;;;4982223;28;20030;-85
2021/12/03 06:03:21;;;;;;;7.03;3.47;;;3.60;99.90;;;;;;4998017;28;20039;-84
2021/12/03 06:05:47;;;;;;;7.80;3.40;;;3.60;99.90;;;;;;4998314;28;20018;-85
2021/12/03 06:08:13;;;;;;;8.68;3.60;;;3.60;99.90;;;;;;4998981;28;20122;-85
2021/12/03 06:10:39;;;;;;;9.57;3.60;;;3.50;99.90;;;;;;4998976;28;20055;-83
2021/12/03 06:13:05;;;;;;;12.07;3.63;;;3.60;99.90;;;;;;4999087;28;20107;-82
2021/12/03 06:15:31;;;;;;;8.55;3.72;;;3.60;99.90;;;;;;4982062;28;20038;-83
2021/12/03 06:17:57;;;;;;;10.40;4.28;;;3.60;99.90;;;;;;4998455;28;20030;-85
2021/12/03 06:20:23;;;;;;;6.20;3.25;;;3.60;99.90;;;;;;4995329;28;20027;-84
2021/12/03 06:22:49;;;;;;;10.43;3.92;;;3.60;99.90;;;;;;4996079;28;20122;-85
2021/12/03 06:25:16;;;;;;;7.53;3.78;;;3.60;99.90;;;;;;4978745;28;20054;-85
2021/12/03 06:27:42;;;;;;;8.65;4.55;;;3.60;99.90;;;;;;4997099;28;20018;-85
2021/12/03 06:30:14;;;;;;;9.05;4.50;;;3.60;99.90;;;;;;4980846;28;20090;-83
2021/12/03 06:32:42;;;;;;;8.30;4.13;;;3.60;99.90;;;;;;4980997;28;20046;-82
2021/12/03 06:35:10;;;;;;;11.85;4.38;;;3.60;99.90;;;;;;4996970;28;20027;-83
2021/12/03 06:37:37;;;;;;;8.43;4.45;;;3.70;99.90;;;;;;4995061;28;20041;-85
2021/12/03 06:40:06;;;;;;;9.05;3.72;;;3.70;99.90;;;;;;4992505;28;20083;-84
2021/12/03 06:42:32;;;;;;;16.65;4.45;;;3.70;99.90;;;;;;4992118;28;20268;-88
2021/12/03 06:44:58;;;;;;;13.73;4.45;;;3.70;99.90;;;;;;4991962;28;20077;-85
2021/12/03 06:47:24;;;;;;;11.52;3.83;;;3.70;99.90;;;;;;4992142;28;20027;-86
2021/12/03 06:49:50;;;;;;;8.63;4.22;;;3.70;99.90;;;;;;4991710;28;20049;-86
2021/12/03 06:52:16;;;;;;;10.38;3.80;;;3.70;99.90;;;;;;4977433;28;20030;-85
2021/12/03 06:54:43;;;;;;;10.23;4.28;;;3.70;99.90;;;;;;4977614;28;20042;-86
2021/12/03 06:57:10;;;;;;;4.95;2.95;;;3.70;99.90;;;;;;4977177;28;20038;-84
2021/12/03 06:59:37;;;;;;;5.13;3.40;;;3.70;99.90;;;;;;4992777;28;20037;-86
2021/12/03 07:02:05;;;;;;;7.22;3.30;;;3.70;99.90;;;;;;4977819;28;20054;-85
2021/12/03 07:04:31;;;;;;;10.98;4.97;;;3.70;99.90;;;;;;4996903;28;20015;-85
2021/12/03 07:06:57;;;;;;;12.70;3.88;;;3.70;99.90;;;;;;4997937;28;20049;-86
2021/12/03 07:09:23;;;;;;;11.98;4.22;;;3.70;99.90;;;;;;4979812;28;20026;-85
2021/12/03 07:11:52;;;;;;;10.40;4.38;;;3.70;99.90;;;;;;4996873;28;20046;-86
2021/12/03 07:14:18;;;;;;;9.25;3.55;;;3.60;99.90;;;;;;4965984;28;20078;-84
2021/12/03 07:16:45;;;;;;;12.48;3.85;;;3.70;99.90;;;;;;4997986;28;20026;-87
2021/12/03 07:19:11;;;;;;;10.60;3.30;;;3.70;99.90;;;;;;4974607;28;20027;-84
2021/12/03 07:21:37;;;;;;;11.45;3.70;;;3.80;99.90;;;;;;4997695;28;20049;-86
2021/12/03 07:24:02;;;;;;;14.00;3.95;;;3.80;99.90;;;;;;4993460;28;20034;-83
2021/12/03 07:26:29;;;;;;;7.15;3.30;;;3.90;99.90;;;;;;4980683;28;20057;-85
2021/12/03 07:28:55;;;;;;;7.80;3.47;;;3.80;99.90;;;;;;4997686;28;20031;-84
2021/12/03 07:31:21;;;;;;;7.30;3.58;;;3.90;99.90;;;;;;4997042;28;20150;-87
2021/12/03 07:33:47;;;;;;;9.73;3.88;;;3.90;99.90;;;;;;4995923;28;20019;-86
2021/12/03 07:36:13;;;;;;;10.07;4.07;;;3.90;99.90;;;;;;4977821;28;20090;-85
2021/12/03 07:38:39;;;;;;;6.90;3.60;;;3.90;99.90;;;;;;4961550;28;20047;-84
2021/12/03 07:41:05;;;;;;;7.40;3.58;;;3.90;99.90;;;;;;4961845;28;20051;-85
2021/12/03 07:43:31;;;;;;;5.25;3.78;;;4.00;99.90;;;;;;4961547;28;20039;-84
2021/12/03 07:45:57;;;;;;;5.72;3.58;;;4.00;99.90;;;;;;4978603;28;20019;-85
2021/12/03 07:48:23;;;;;;;10.38;3.72;;;4.00;99.90;;;;;;4961568;28;20043;-87
2021/12/03 07:50:50;;;;;;;10.00;4.25;;;4.10;99.90;;;;;;4978681;28;20083;-86
2021/12/03 07:53:19;;;;;;;9.02;4.15;;;4.20;99.90;;;;;;4962325;28;20039;-86
2021/12/03 07:55:47;;;;;;;8.18;4.10;;;4.20;99.90;;;;;;4983249;28;20031;-85
2021/12/03 07:58:15;;;;;;;14.05;4.63;;;4.20;99.90;;;;;;4967791;28;20030;-87
2021/12/03 08:00:43;;;;;;;11.73;4.28;;;4.20;99.90;;;;;;4981734;28;20018;-86
2021/12/03 08:03:09;;;;;;;10.40;4.60;;;4.10;99.90;;;;;;4985337;28;20029;-87
2021/12/03 08:05:34;;;;;;;16.00;4.25;;;4.20;99.90;;;;;;4984929;28;20090;-86
2021/12/03 08:08:00;;;;;;;8.95;4.78;;;4.20;99.90;;;;;;5002274;28;20038;-85
2021/12/03 08:10:27;;;;;;;7.53;5.00;;;4.20;99.90;;;;;;4984835;28;20023;-87
2021/12/03 08:12:53;;;;;;;8.35;4.25;;;4.30;99.90;;;;;;5001121;28;20027;-84
2021/12/03 08:15:19;;;;;;;7.63;4.70;;;4.50;99.90;;;;;;4974366;28;20019;-85
2021/12/03 08:17:49;;;;;;;13.90;4.75;;;4.80;99.90;;;;;;4975767;28;20014;-85
2021/12/03 08:20:17;;;;;;;7.32;4.32;;;5.00;99.90;;;;;;5001235;28;20026;-86
2021/12/03 08:22:43;;;;;;;9.35;4.60;;;5.10;99.90;;;;;;4968267;28;20041;-87
2021/12/03 08:25:10;;;;;;;13.75;4.63;;;5.00;99.90;;;;;;4988322;28;20035;-86
2021/12/03 08:27:36;;;;;;;13.02;5.03;;;4.90;99.90;;;;;;4984160;28;20018;-86
2021/12/03 08:30:05;;;;;;;14.50;5.50;;;4.80;99.90;;;;;;5001681;28;20018;-87
2021/12/03 08:32:31;;;;;;;9.20;4.80;;;4.70;99.90;;;;;;4984498;28;20132;-85
2021/12/03 08:34:57;;;;;;;11.60;6.07;;;4.60;99.90;;;;;;5001377;28;20030;-87
2021/12/03 08:37:23;;;;;;;12.27;6.22;;;4.50;99.90;;;;;;5001333;28;20054;-85
2021/12/03 08:39:49;;;;;;;10.73;5.88;;;4.60;99.90;;;;;;4984326;28;20043;-86
2021/12/03 08:42:15;;;;;;;13.27;6.18;;;4.80;99.90;;;;;;4984419;28;20023;-87
2021/12/03 08:44:41;;;;;;;11.57;5.95;;;5.00;99.90;;;;;;4984248;28;20026;-87
2021/12/03 08:47:07;;;;;;;19.88;9.20;;;5.00;99.90;;;;;;5001039;28;20019;-87
2021/12/03 08:49:52;;;;;;;11.30;5.97;;;4.70;99.90;;;;;;4984231;28;20031;-86
2021/12/03 08:54:55;;;;;;;8.98;6.05;;;4.50;99.90;;;;;;4984389;28;20018;-86
2021/12/03 08:57:30;;;;;;;11.98;5.72;;;4.50;99.90;;;;;;4983089;28;20047;-87
2021/12/03 09:00:10;;;;;;;11.60;5.45;;;4.70;99.90;;;;;;4965223;28;20042;-86
2021/12/03 09:02:37;;;;;;;9.95;5.72;;;4.70;99.90;;;;;;4978131;28;20038;-87
2021/12/03 09:05:03;;;;;;;12.73;5.78;;;4.70;99.90;;;;;;4981985;28;20011;-87
2021/12/03 09:07:30;;;;;;;13.30;6.22;;;4.70;99.90;;;;;;4998832;28;20018;-87
2021/12/03 09:09:56;;;;;;;10.68;5.95;;;4.70;99.90;;;;;;4977604;28;20023;-87
2021/12/03 09:12:22;;;;;;;10.52;5.72;;;4.70;99.90;;;;;;4978256;28;20023;-87
2021/12/03 09:14:57;;;;;;;10.52;6.68;;;4.70;99.90;;;;;;4980341;28;20038;-86
2021/12/03 09:22:45;;;;;;;15.32;5.68;;;5.10;99.90;;;;;;4999195;28;20082;-87
2021/12/03 09:25:17;;;;;;;9.18;5.40;;;5.20;99.90;;;;;;4982801;28;20065;-88
2021/12/03 09:27:43;;;;;;;6.70;4.35;;;5.30;99.90;;;;;;4983117;28;20023;-86
2021/12/03 09:30:12;;;;;;;7.00;4.90;;;5.70;99.90;;;;;;4982677;28;20042;-86
2021/12/03 09:32:41;;;;;;;8.95;4.78;;;5.90;99.90;;;;;;4981678;28;20045;-86
2021/12/03 09:35:13;;;;;;;8.60;4.53;;;6.30;99.90;;;;;;5000231;28;20029;-86
2021/12/03 09:37:39;;;;;;;7.25;4.38;;;6.40;99.90;;;;;;5000607;28;20027;-88
2021/12/03 09:40:08;;;;;;;8.18;4.55;;;6.40;99.90;;;;;;4983334;28;20023;-86
2021/12/03 09:42:37;;;;;;;9.95;4.68;;;6.50;99.90;;;;;;5000772;28;20042;-87
2021/12/03 09:45:04;;;;;;;8.45;4.88;;;6.30;99.90;;;;;;4999180;28;20042;-88
2021/12/03 09:47:31;;;;;;;8.05;4.20;;;6.10;99.90;;;;;;4997767;28;20030;-88
2021/12/03 09:49:59;;;;;;;5.88;3.83;;;6.00;99.90;;;;;;4995538;28;20080;-86
2021/12/03 09:52:30;;;;;;;8.65;4.25;;;5.80;99.90;;;;;;4961271;28;20046;-89
2021/12/03 09:55:02;;;;;;;6.65;4.25;;;5.90;99.90;;;;;;4995080;28;20027;-87
2021/12/03 10:21:40;;;;;;;7.13;3.65;;;10.80;96.90;;;;;;4974631;28;20038;-86
2021/12/03 10:38:14;;;;;;;8.63;4.30;;;11.90;94.00;;;;;;4982035;28;20028;-86
2021/12/03 11:35:29;;;;;;;6.75;4.43;;;8.90;94.90;;;;;;4985818;28;20086;-85
2021/12/03 14:47:10;;;;;;;13.40;4.97;;;5.40;99.90;;;;;;4967636;29;20684;-86
2021/12/03 14:52:47;;;;;;;14.30;5.20;;;5.30;99.90;;;;;;4957561;29;20044;-85
2021/12/03 14:55:25;;;;;;;8.77;4.28;;;5.30;99.90;;;;;;4950393;29;20039;-88
2021/12/03 14:57:57;;;;;;;9.48;4.32;;;5.20;99.90;;;;;;4970067;29;20038;-85
2021/12/03 15:00:29;;;;;;;9.48;4.80;;;5.20;99.90;;;;;;4951874;29;20062;-86
2021/12/03 15:06:51;;;;;;;10.85;5.28;;;5.10;99.90;;;;;;4960962;29;20031;-87
2021/12/03 15:22:40;;;;;;;7.80;4.32;;;4.80;99.90;;;;;;4975660;28;20063;-87
2021/12/03 15:32:08;;;;;;;9.32;5.22;;;4.70;99.90;;;;;;4965237;28;20035;-85
2021/12/03 15:39:45;;;;;;;9.57;4.13;;;4.40;99.90;;;;;;4964541;28;20036;-86
2021/12/03 15:58:46;;;;;;;10.27;4.93;;;4.10;99.90;;;;;;4965827;29;20118;-86
2021/12/03 16:04:02;;;;;;;12.27;4.17;;;4.00;99.90;;;;;;4977858;28;20049;-83
2021/12/03 16:06:42;;;;;;;7.55;4.40;;;3.90;99.90;;;;;;4968084;28;20295;-85
2021/12/03 16:11:45;;;;;;;9.55;5.18;;;3.80;99.90;;;;;;4975459;29;20035;-84
2021/12/03 16:24:45;;;;;;;;;;;3.70;99.90;;;;;;4977097;29;20035;-84
2021/12/03 16:51:46;;;;;;;11.10;5.40;;;3.30;99.90;;;;;;4969365;28;20035;-85
2021/12/03 16:54:15;;;;;;;11.75;5.72;;;3.30;99.90;;;;;;4954013;29;20028;-85
2021/12/03 16:56:47;;;;;;;11.60;5.75;;;3.30;99.90;;;;;;4969368;29;20046;-86
2021/12/03 16:59:13;;;;;;;11.70;5.85;;;3.30;99.90;;;;;;4969369;28;20035;-89
2021/12/03 17:01:48;;;;;;;11.90;6.15;;;3.30;99.90;;;;;;4967227;28;20027;-86
2021/12/03 17:44:41;;;;;;;13.10;6.85;;;3.10;99.90;;;;;;4947678;29;20036;-86
2021/12/03 18:00:20;;;;;;;17.23;7.28;;;3.00;99.90;;;;;;4975841;28;20031;-83
2021/12/03 18:02:49;;;;;;;14.40;7.22;;;3.00;99.90;;;;;;4952662;29;20050;-83
2021/12/03 18:45:51;;;;;;;13.90;7.65;;;2.90;99.90;;;;;;4951607;29;20046;-86
2021/12/03 18:53:47;;;;;;;26.67;11.77;;;2.80;99.90;;;;;;4940328;29;20038;-85
2021/12/03 18:56:48;;;;;;;21.75;10.82;;;2.80;99.90;;;;;;4959239;28;20023;-85
2021/12/03 18:59:07;;;;;;;17.42;8.77;;;2.70;99.90;;;;;;4955810;29;20062;-85
2021/12/03 19:01:34;;;;;;;20.02;8.95;;;2.70;99.90;;;;;;4955239;29;20087;-85
2021/12/03 19:07:09;;;;;;;16.35;7.13;;;2.70;99.90;;;;;;4954865;29;20031;-83
2021/12/03 19:09:39;;;;;;;14.75;7.63;;;2.70;99.90;;;;;;4955478;29;20032;-87
2021/12/03 19:14:37;;;;;;;15.38;7.55;;;2.70;99.90;;;;;;4959172;28;20051;-84
2021/12/03 19:17:06;;;;;;;13.35;7.15;;;2.80;99.90;;;;;;4941234;29;20048;-85
2021/12/03 19:19:38;;;;;;;14.13;7.55;;;2.70;99.90;;;;;;4955815;29;20171;-84
2021/12/03 19:22:04;;;;;;;15.95;8.10;;;2.80;99.90;;;;;;4952500;29;20039;-87
2021/12/03 19:24:31;;;;;;;16.02;8.18;;;2.80;99.90;;;;;;4934816;29;20456;-86
2021/12/03 19:26:58;;;;;;;12.70;7.07;;;2.70;99.90;;;;;;4951050;29;20031;-84
2021/12/03 19:29:24;;;;;;;16.08;6.72;;;2.80;99.90;;;;;;4949815;29;20023;-86
2021/12/03 19:31:52;;;;;;;13.23;6.72;;;2.70;99.90;;;;;;4932093;29;20540;-86
2021/12/03 19:34:23;;;;;;;14.77;6.70;;;2.70;99.90;;;;;;4953014;29;20027;-85
2021/12/03 19:36:50;;;;;;;13.48;6.90;;;2.60;99.90;;;;;;4958854;28;20040;-84
2021/12/03 19:39:18;;;;;;;17.48;7.60;;;2.70;99.90;;;;;;4958235;29;20028;-84
2021/12/03 19:41:50;;;;;;;16.38;7.65;;;2.60;99.90;;;;;;4958179;28;20099;-83
2021/12/03 19:44:22;;;;;;;16.67;8.60;;;2.70;99.90;;;;;;4939270;29;20031;-84
2021/12/03 19:46:50;;;;;;;18.40;8.13;;;2.60;99.90;;;;;;4937337;29;20039;-84
2021/12/03 19:52:00;;;;;;;58.90;20.23;;;2.70;99.90;;;;;;4951018;28;20042;-83
2021/12/03 19:54:27;;;;;;;123.20;33.13;;;2.60;99.90;;;;;;4943018;29;20191;-89
2021/12/03 19:56:52;;;;;;;56.75;19.42;;;2.70;99.90;;;;;;4923401;29;20018;-87
2021/12/03 19:59:19;;;;;;;16.27;7.60;;;2.70;99.90;;;;;;4956091;29;20031;-90
2021/12/03 20:01:46;;;;;;;19.20;9.50;;;2.70;99.90;;;;;;4954779;29;20054;-89
2021/12/03 20:04:13;;;;;;;16.67;8.50;;;2.70;99.90;;;;;;4953979;29;20028;-83
2021/12/03 20:06:43;;;;;;;22.27;9.38;;;2.70;99.90;;;;;;4954459;29;20027;-90
2021/12/03 20:09:12;;;;;;;21.67;8.50;;;2.70;99.90;;;;;;4935410;29;20028;-89
2021/12/03 20:11:42;;;;;;;20.95;9.25;;;2.80;99.90;;;;;;4951147;29;20031;-91
2021/12/03 20:14:12;;;;;;;20.55;9.93;;;2.80;99.90;;;;;;4951098;29;20067;-89
2021/12/03 20:16:47;;;;;;;18.90;8.57;;;2.80;99.90;;;;;;4949502;29;20074;-88
2021/12/03 20:19:27;;;;;;;20.65;9.05;;;2.80;99.90;;;;;;4917775;29;20035;-89
2021/12/03 20:22:02;;;;;;;16.40;8.13;;;2.80;99.90;;;;;;4949412;29;20043;-90
2021/12/03 20:27:05;;;;;;;20.27;8.32;;;2.70;99.90;;;;;;4950813;29;20112;-89
2021/12/03 20:34:53;;;;;;;17.08;8.68;;;2.60;99.90;;;;;;4950247;29;20062;-89
2021/12/03 20:37:23;;;;;;;16.63;8.18;;;2.60;99.90;;;;;;4948590;29;20043;-90
2021/12/03 20:39:52;;;;;;;16.58;8.63;;;2.60;99.90;;;;;;4950670;29;20484;-91
2021/12/03 20:53:22;;;;;;;22.35;9.02;;;2.50;99.90;;;;;;4930577;29;20043;-89
2021/12/03 21:10:54;;;;;;;18.02;8.10;;;2.40;99.90;;;;;;4958451;28;20039;-89
2021/12/03 21:13:30;;;;;;;14.63;8.45;;;2.40;99.90;;;;;;4951250;29;20064;-89
2021/12/03 21:18:33;;;;;;;16.13;7.90;;;2.30;99.90;;;;;;4951095;29;20024;-90
2021/12/03 21:21:05;;;;;;;20.63;7.10;;;2.30;99.90;;;;;;4931401;29;20094;-90
2021/12/03 21:23:34;;;;;;;16.08;7.80;;;2.30;99.90;;;;;;4933222;29;20022;-90
2021/12/03 21:26:01;;;;;;;18.20;7.78;;;2.30;99.90;;;;;;4931721;29;20155;-90
2021/12/03 21:41:24;;;;;;;16.98;8.27;;;2.30;99.90;;;;;;4934442;29;20043;-89
2021/12/03 21:43:55;;;;;;;15.90;8.07;;;2.30;99.90;;;;;;4951024;29;20200;-90
2021/12/03 21:46:24;;;;;;;17.00;8.05;;;2.40;99.90;;;;;;4952668;29;20028;-89
2021/12/03 21:48:54;;;;;;;15.45;7.47;;;2.40;99.90;;;;;;4959723;28;20027;-89
2021/12/03 21:51:22;;;;;;;15.15;7.20;;;2.40;99.90;;;;;;4935380;29;20031;-88